sensor_id;sensor_type;location;lat;lon;timestamp;temperature;humidity
66190;DHT22;52992;52.084;5.412;2023-05-02T00:00:55;16.00;56.20
66190;DHT22;52992;52.084;5.412;2023-05-02T00:03:22;16.00;56.10
66190;DHT22;52992;52.084;5.412;2023-05-02T00:05:49;16.00;56.00
66190;DHT22;52992;52.084;5.412;2023-05-02T00:08:16;16.00;56.10
66190;DHT22;52992;52.084;5.412;2023-05-02T00:10:42;16.00;56.20
66190;DHT22;52992;52.084;5.412;2023-05-02T00:13:09;16.00;56.30
66190;DHT22;52992;52.084;5.412;2023-05-02T00:15:36;16.00;56.40
66190;DHT22;52992;52.084;5.412;2023-05-02T00:18:03;16.00;56.40
66190;DHT22;52992;52.084;5.412;2023-05-02T00:20:30;16.00;56.50
66190;DHT22;52992;52.084;5.412;2023-05-02T00:22:57;16.00;56.60
66190;DHT22;52992;52.084;5.412;2023-05-02T00:25:24;15.90;56.80
66190;DHT22;52992;52.084;5.412;2023-05-02T00:27:51;15.90;56.90
66190;DHT22;52992;52.084;5.412;2023-05-02T00:30:18;15.90;57.10
66190;DHT22;52992;52.084;5.412;2023-05-02T00:32:46;15.90;57.20
66190;DHT22;52992;52.084;5.412;2023-05-02T00:35:13;15.90;57.10
66190;DHT22;52992;52.084;5.412;2023-05-02T00:37:40;16.00;57.00
66190;DHT22;52992;52.084;5.412;2023-05-02T00:40:07;16.10;56.80
66190;DHT22;52992;52.084;5.412;2023-05-02T00:42:34;16.10;57.50
66190;DHT22;52992;52.084;5.412;2023-05-02T00:45:05;16.20;56.60
66190;DHT22;52992;52.084;5.412;2023-05-02T00:47:32;16.20;56.60
66190;DHT22;52992;52.084;5.412;2023-05-02T00:50:00;16.20;56.70
66190;DHT22;52992;52.084;5.412;2023-05-02T00:52:28;16.20;57.20
66190;DHT22;52992;52.084;5.412;2023-05-02T00:54:55;16.20;56.40
66190;DHT22;52992;52.084;5.412;2023-05-02T00:57:22;16.20;56.20
66190;DHT22;52992;52.084;5.412;2023-05-02T00:59:50;16.10;56.50
66190;DHT22;52992;52.084;5.412;2023-05-02T01:02:41;16.00;56.70
66190;DHT22;52992;52.084;5.412;2023-05-02T01:05:41;16.00;56.90
66190;DHT22;52992;52.084;5.412;2023-05-02T01:08:12;16.00;57.00
66190;DHT22;52992;52.084;5.412;2023-05-02T01:10:51;16.00;57.30
66190;DHT22;52992;52.084;5.412;2023-05-02T01:13:27;15.90;57.70
66190;DHT22;52992;52.084;5.412;2023-05-02T01:15:57;15.80;58.00
66190;DHT22;52992;52.084;5.412;2023-05-02T01:18:26;15.70;58.40
66190;DHT22;52992;52.084;5.412;2023-05-02T01:21:01;15.80;58.80
66190;DHT22;52992;52.084;5.412;2023-05-02T01:26:35;15.70;59.00
66190;DHT22;52992;52.084;5.412;2023-05-02T01:29:07;15.60;59.40
66190;DHT22;52992;52.084;5.412;2023-05-02T01:31:38;15.50;60.00
66190;DHT22;52992;52.084;5.412;2023-05-02T01:34:08;15.40;60.20
66190;DHT22;52992;52.084;5.412;2023-05-02T01:36:37;15.40;60.20
66190;DHT22;52992;52.084;5.412;2023-05-02T01:39:19;15.40;60.00
66190;DHT22;52992;52.084;5.412;2023-05-02T01:41:49;15.40;59.40
66190;DHT22;52992;52.084;5.412;2023-05-02T01:44:22;15.30;58.90
66190;DHT22;52992;52.084;5.412;2023-05-02T01:46:51;15.20;59.00
66190;DHT22;52992;52.084;5.412;2023-05-02T01:49:19;15.20;58.80
66190;DHT22;52992;52.084;5.412;2023-05-02T01:51:48;15.20;58.50
66190;DHT22;52992;52.084;5.412;2023-05-02T01:54:17;15.10;58.30
66190;DHT22;52992;52.084;5.412;2023-05-02T01:56:46;15.10;58.20
66190;DHT22;52992;52.084;5.412;2023-05-02T01:59:18;15.00;58.20
66190;DHT22;52992;52.084;5.412;2023-05-02T02:01:47;15.00;58.20
66190;DHT22;52992;52.084;5.412;2023-05-02T02:04:16;15.00;58.20
66190;DHT22;52992;52.084;5.412;2023-05-02T02:06:47;15.10;58.20
66190;DHT22;52992;52.084;5.412;2023-05-02T02:09:16;15.00;58.20
66190;DHT22;52992;52.084;5.412;2023-05-02T02:11:51;14.90;58.50
66190;DHT22;52992;52.084;5.412;2023-05-02T02:14:21;14.90;58.50
66190;DHT22;52992;52.084;5.412;2023-05-02T02:16:53;14.90;58.20
66190;DHT22;52992;52.084;5.412;2023-05-02T02:19:21;14.90;58.10
66190;DHT22;52992;52.084;5.412;2023-05-02T02:21:49;14.90;57.80
66190;DHT22;52992;52.084;5.412;2023-05-02T02:24:20;15.00;57.70
66190;DHT22;52992;52.084;5.412;2023-05-02T02:26:47;15.00;57.60
66190;DHT22;52992;52.084;5.412;2023-05-02T02:29:14;15.00;57.30
66190;DHT22;52992;52.084;5.412;2023-05-02T02:31:41;15.00;57.40
66190;DHT22;52992;52.084;5.412;2023-05-02T02:34:07;14.90;57.00
66190;DHT22;52992;52.084;5.412;2023-05-02T02:39:24;15.00;56.80
66190;DHT22;52992;52.084;5.412;2023-05-02T02:47:10;14.80;56.00
66190;DHT22;52992;52.084;5.412;2023-05-02T02:49:48;14.80;55.70
66190;DHT22;52992;52.084;5.412;2023-05-02T02:57:23;14.70;55.50
66190;DHT22;52992;52.084;5.412;2023-05-02T03:00:12;14.70;55.60
66190;DHT22;52992;52.084;5.412;2023-05-02T03:02:41;14.70;55.50
66190;DHT22;52992;52.084;5.412;2023-05-02T03:05:10;14.70;55.10
66190;DHT22;52992;52.084;5.412;2023-05-02T03:07:37;14.70;54.90
66190;DHT22;52992;52.084;5.412;2023-05-02T03:10:05;14.70;54.80
66190;DHT22;52992;52.084;5.412;2023-05-02T03:12:34;14.60;54.70
66190;DHT22;52992;52.084;5.412;2023-05-02T03:15:21;14.60;54.70
66190;DHT22;52992;52.084;5.412;2023-05-02T03:17:52;14.60;54.70
66190;DHT22;52992;52.084;5.412;2023-05-02T03:20:18;14.70;54.50
66190;DHT22;52992;52.084;5.412;2023-05-02T03:22:46;14.60;54.20
66190;DHT22;52992;52.084;5.412;2023-05-02T03:25:13;14.70;54.10
66190;DHT22;52992;52.084;5.412;2023-05-02T03:27:44;14.60;54.10
66190;DHT22;52992;52.084;5.412;2023-05-02T03:30:11;14.60;54.20
66190;DHT22;52992;52.084;5.412;2023-05-02T03:32:38;14.60;54.10
66190;DHT22;52992;52.084;5.412;2023-05-02T03:35:06;14.60;54.00
66190;DHT22;52992;52.084;5.412;2023-05-02T03:37:38;14.60;53.90
66190;DHT22;52992;52.084;5.412;2023-05-02T03:40:05;14.50;54.10
66190;DHT22;52992;52.084;5.412;2023-05-02T03:42:33;14.50;54.00
66190;DHT22;52992;52.084;5.412;2023-05-02T03:45:09;14.50;54.10
66190;DHT22;52992;52.084;5.412;2023-05-02T03:47:36;14.50;54.00
66190;DHT22;52992;52.084;5.412;2023-05-02T03:50:05;14.40;54.00
66190;DHT22;52992;52.084;5.412;2023-05-02T03:52:33;14.40;54.00
66190;DHT22;52992;52.084;5.412;2023-05-02T03:55:00;14.40;54.10
66190;DHT22;52992;52.084;5.412;2023-05-02T03:57:31;14.40;54.20
66190;DHT22;52992;52.084;5.412;2023-05-02T03:59:59;14.30;54.10
66190;DHT22;52992;52.084;5.412;2023-05-02T04:02:37;14.30;54.90
66190;DHT22;52992;52.084;5.412;2023-05-02T04:05:07;14.30;54.30
66190;DHT22;52992;52.084;5.412;2023-05-02T04:07:37;14.30;54.10
66190;DHT22;52992;52.084;5.412;2023-05-02T04:10:05;14.30;54.20
66190;DHT22;52992;52.084;5.412;2023-05-02T04:12:39;14.30;54.10
66190;DHT22;52992;52.084;5.412;2023-05-02T04:15:20;14.20;53.70
66190;DHT22;52992;52.084;5.412;2023-05-02T04:17:50;14.20;53.80
66190;DHT22;52992;52.084;5.412;2023-05-02T04:20:18;14.20;53.90
66190;DHT22;52992;52.084;5.412;2023-05-02T04:22:48;14.20;53.90
66190;DHT22;52992;52.084;5.412;2023-05-02T04:25:16;14.20;54.00
66190;DHT22;52992;52.084;5.412;2023-05-02T04:27:44;14.20;54.00
66190;DHT22;52992;52.084;5.412;2023-05-02T04:30:14;14.20;54.00
66190;DHT22;52992;52.084;5.412;2023-05-02T04:32:45;14.20;54.00
66190;DHT22;52992;52.084;5.412;2023-05-02T04:35:13;14.20;53.90
66190;DHT22;52992;52.084;5.412;2023-05-02T04:37:41;14.10;53.90
66190;DHT22;52992;52.084;5.412;2023-05-02T04:40:09;14.10;53.70
66190;DHT22;52992;52.084;5.412;2023-05-02T04:42:37;14.20;53.50
66190;DHT22;52992;52.084;5.412;2023-05-02T04:45:14;14.20;53.20
66190;DHT22;52992;52.084;5.412;2023-05-02T04:47:43;14.10;53.10
66190;DHT22;52992;52.084;5.412;2023-05-02T04:50:10;14.10;53.20
66190;DHT22;52992;52.084;5.412;2023-05-02T04:52:38;14.20;53.10
66190;DHT22;52992;52.084;5.412;2023-05-02T04:55:05;14.00;53.00
66190;DHT22;52992;52.084;5.412;2023-05-02T04:57:32;14.00;52.90
66190;DHT22;52992;52.084;5.412;2023-05-02T05:00:01;13.90;53.00
66190;DHT22;52992;52.084;5.412;2023-05-02T05:02:29;14.00;53.00
66190;DHT22;52992;52.084;5.412;2023-05-02T05:04:57;14.00;52.70
66190;DHT22;52992;52.084;5.412;2023-05-02T05:07:24;14.00;52.70
66190;DHT22;52992;52.084;5.412;2023-05-02T05:09:52;13.90;52.80
66190;DHT22;52992;52.084;5.412;2023-05-02T05:12:22;13.90;52.50
66190;DHT22;52992;52.084;5.412;2023-05-02T05:14:49;14.00;52.40
66190;DHT22;52992;52.084;5.412;2023-05-02T05:17:18;14.00;52.30
66190;DHT22;52992;52.084;5.412;2023-05-02T05:19:45;14.00;51.60
66190;DHT22;52992;52.084;5.412;2023-05-02T05:22:12;14.00;51.50
66190;DHT22;52992;52.084;5.412;2023-05-02T05:24:39;14.00;51.60
66190;DHT22;52992;52.084;5.412;2023-05-02T05:27:06;14.10;51.70
66190;DHT22;52992;52.084;5.412;2023-05-02T05:29:33;14.10;50.90
66190;DHT22;52992;52.084;5.412;2023-05-02T05:32:00;14.10;50.90
66190;DHT22;52992;52.084;5.412;2023-05-02T05:34:28;14.20;50.70
66190;DHT22;52992;52.084;5.412;2023-05-02T05:36:57;14.10;50.10
66190;DHT22;52992;52.084;5.412;2023-05-02T05:39:24;14.10;50.20
66190;DHT22;52992;52.084;5.412;2023-05-02T05:41:54;14.00;50.20
66190;DHT22;52992;52.084;5.412;2023-05-02T05:44:22;14.00;50.10
66190;DHT22;52992;52.084;5.412;2023-05-02T05:46:50;13.90;49.90
66190;DHT22;52992;52.084;5.412;2023-05-02T05:49:19;13.80;50.30
66190;DHT22;52992;52.084;5.412;2023-05-02T05:51:48;13.70;50.50
66190;DHT22;52992;52.084;5.412;2023-05-02T05:54:17;13.70;50.20
66190;DHT22;52992;52.084;5.412;2023-05-02T05:56:44;13.60;49.80
66190;DHT22;52992;52.084;5.412;2023-05-02T05:59:15;13.60;49.40
66190;DHT22;52992;52.084;5.412;2023-05-02T06:01:42;13.60;49.30
66190;DHT22;52992;52.084;5.412;2023-05-02T06:04:10;13.70;49.50
66190;DHT22;52992;52.084;5.412;2023-05-02T06:06:40;13.70;49.40
66190;DHT22;52992;52.084;5.412;2023-05-02T06:09:07;13.70;49.60
66190;DHT22;52992;52.084;5.412;2023-05-02T06:11:36;13.80;49.10
66190;DHT22;52992;52.084;5.412;2023-05-02T06:14:04;13.90;49.10
66190;DHT22;52992;52.084;5.412;2023-05-02T06:16:31;14.00;49.10
66190;DHT22;52992;52.084;5.412;2023-05-02T06:18:58;14.10;49.00
66190;DHT22;52992;52.084;5.412;2023-05-02T06:21:25;14.10;48.90
66190;DHT22;52992;52.084;5.412;2023-05-02T06:23:52;14.30;49.00
66190;DHT22;52992;52.084;5.412;2023-05-02T06:26:19;14.40;48.80
66190;DHT22;52992;52.084;5.412;2023-05-02T06:28:47;14.50;48.80
66190;DHT22;52992;52.084;5.412;2023-05-02T06:31:13;14.50;48.30
66190;DHT22;52992;52.084;5.412;2023-05-02T06:33:42;14.50;47.90
66190;DHT22;52992;52.084;5.412;2023-05-02T06:36:08;14.60;48.00
66190;DHT22;52992;52.084;5.412;2023-05-02T06:38:35;14.70;47.80
66190;DHT22;52992;52.084;5.412;2023-05-02T06:41:02;14.80;47.20
66190;DHT22;52992;52.084;5.412;2023-05-02T06:43:29;14.80;46.40
66190;DHT22;52992;52.084;5.412;2023-05-02T06:45:56;14.90;46.60
66190;DHT22;52992;52.084;5.412;2023-05-02T06:48:24;14.90;46.00
66190;DHT22;52992;52.084;5.412;2023-05-02T06:50:51;14.90;46.00
66190;DHT22;52992;52.084;5.412;2023-05-02T06:53:21;14.90;45.60
66190;DHT22;52992;52.084;5.412;2023-05-02T06:55:48;14.80;45.60
66190;DHT22;52992;52.084;5.412;2023-05-02T06:58:15;14.90;45.40
66190;DHT22;52992;52.084;5.412;2023-05-02T07:00:42;15.00;45.60
66190;DHT22;52992;52.084;5.412;2023-05-02T07:03:09;15.10;44.90
66190;DHT22;52992;52.084;5.412;2023-05-02T07:05:39;15.00;44.80
66190;DHT22;52992;52.084;5.412;2023-05-02T07:08:06;14.90;45.10
66190;DHT22;52992;52.084;5.412;2023-05-02T07:10:34;14.90;45.10
66190;DHT22;52992;52.084;5.412;2023-05-02T07:13:01;14.80;45.00
66190;DHT22;52992;52.084;5.412;2023-05-02T07:15:28;14.60;44.60
66190;DHT22;52992;52.084;5.412;2023-05-02T07:17:55;14.60;45.60
66190;DHT22;52992;52.084;5.412;2023-05-02T07:20:22;14.50;45.20
66190;DHT22;52992;52.084;5.412;2023-05-02T07:22:49;14.50;45.40
66190;DHT22;52992;52.084;5.412;2023-05-02T07:25:16;14.50;45.10
66190;DHT22;52992;52.084;5.412;2023-05-02T07:27:43;14.50;45.80
66190;DHT22;52992;52.084;5.412;2023-05-02T07:30:10;14.60;45.40
66190;DHT22;52992;52.084;5.412;2023-05-02T07:32:37;14.70;45.90
66190;DHT22;52992;52.084;5.412;2023-05-02T07:35:04;15.00;45.60
66190;DHT22;52992;52.084;5.412;2023-05-02T07:37:34;15.00;45.30
66190;DHT22;52992;52.084;5.412;2023-05-02T07:40:02;14.90;45.10
66190;DHT22;52992;52.084;5.412;2023-05-02T07:42:30;14.80;44.70
66190;DHT22;52992;52.084;5.412;2023-05-02T07:44:58;14.80;44.70
66190;DHT22;52992;52.084;5.412;2023-05-02T07:47:25;14.90;45.10
66190;DHT22;52992;52.084;5.412;2023-05-02T07:49:53;14.90;43.90
66190;DHT22;52992;52.084;5.412;2023-05-02T07:52:21;15.00;44.00
66190;DHT22;52992;52.084;5.412;2023-05-02T07:54:48;15.00;44.10
66190;DHT22;52992;52.084;5.412;2023-05-02T07:57:16;15.10;44.20
66190;DHT22;52992;52.084;5.412;2023-05-02T07:59:43;15.10;43.50
66190;DHT22;52992;52.084;5.412;2023-05-02T08:02:10;15.10;42.80
66190;DHT22;52992;52.084;5.412;2023-05-02T08:04:39;15.00;43.00
66190;DHT22;52992;52.084;5.412;2023-05-02T08:07:06;15.00;43.60
66190;DHT22;52992;52.084;5.412;2023-05-02T08:09:33;15.10;42.60
66190;DHT22;52992;52.084;5.412;2023-05-02T08:12:00;15.00;42.30
66190;DHT22;52992;52.084;5.412;2023-05-02T08:14:30;15.10;42.30
66190;DHT22;52992;52.084;5.412;2023-05-02T08:16:58;15.10;42.30
66190;DHT22;52992;52.084;5.412;2023-05-02T08:19:25;15.20;42.40
66190;DHT22;52992;52.084;5.412;2023-05-02T08:21:55;15.20;42.30
66190;DHT22;52992;52.084;5.412;2023-05-02T08:24:22;15.20;41.60
66190;DHT22;52992;52.084;5.412;2023-05-02T08:26:49;15.20;41.70
66190;DHT22;52992;52.084;5.412;2023-05-02T08:29:16;15.10;41.80
66190;DHT22;52992;52.084;5.412;2023-05-02T08:31:43;15.20;41.90
66190;DHT22;52992;52.084;5.412;2023-05-02T08:34:10;15.30;41.70
66190;DHT22;52992;52.084;5.412;2023-05-02T08:36:37;15.50;41.70
66190;DHT22;52992;52.084;5.412;2023-05-02T08:39:03;15.70;41.40
66190;DHT22;52992;52.084;5.412;2023-05-02T08:41:31;15.90;41.00
66190;DHT22;52992;52.084;5.412;2023-05-02T08:43:58;16.10;40.00
66190;DHT22;52992;52.084;5.412;2023-05-02T08:46:26;16.10;39.90
66190;DHT22;52992;52.084;5.412;2023-05-02T08:48:54;16.30;39.50
66190;DHT22;52992;52.084;5.412;2023-05-02T08:51:24;16.50;38.30
66190;DHT22;52992;52.084;5.412;2023-05-02T08:53:55;16.60;38.00
66190;DHT22;52992;52.084;5.412;2023-05-02T08:56:22;16.50;36.60
66190;DHT22;52992;52.084;5.412;2023-05-02T08:58:51;16.40;36.50
66190;DHT22;52992;52.084;5.412;2023-05-02T09:01:20;16.30;36.40
66190;DHT22;52992;52.084;5.412;2023-05-02T09:03:48;16.20;36.20
66190;DHT22;52992;52.084;5.412;2023-05-02T09:06:20;16.30;36.60
66190;DHT22;52992;52.084;5.412;2023-05-02T09:08:49;16.50;35.90
66190;DHT22;52992;52.084;5.412;2023-05-02T09:11:18;16.60;35.30
66190;DHT22;52992;52.084;5.412;2023-05-02T09:13:47;16.70;34.90
66190;DHT22;52992;52.084;5.412;2023-05-02T09:16:16;16.80;35.50
66190;DHT22;52992;52.084;5.412;2023-05-02T09:18:48;16.90;35.20
66190;DHT22;52992;52.084;5.412;2023-05-02T09:21:17;17.10;35.40
66190;DHT22;52992;52.084;5.412;2023-05-02T09:23:49;17.60;35.60
66190;DHT22;52992;52.084;5.412;2023-05-02T09:26:21;17.80;33.30
66190;DHT22;52992;52.084;5.412;2023-05-02T09:28:49;17.90;33.80
66190;DHT22;52992;52.084;5.412;2023-05-02T09:31:22;17.70;32.70
66190;DHT22;52992;52.084;5.412;2023-05-02T09:33:52;17.40;33.00
66190;DHT22;52992;52.084;5.412;2023-05-02T09:36:20;17.30;33.40
66190;DHT22;52992;52.084;5.412;2023-05-02T09:38:48;17.10;33.10
66190;DHT22;52992;52.084;5.412;2023-05-02T09:41:16;17.00;33.20
66190;DHT22;52992;52.084;5.412;2023-05-02T09:43:54;16.90;33.20
66190;DHT22;52992;52.084;5.412;2023-05-02T09:46:25;17.00;31.60
66190;DHT22;52992;52.084;5.412;2023-05-02T09:48:55;17.00;31.60
66190;DHT22;52992;52.084;5.412;2023-05-02T09:51:23;17.10;31.00
66190;DHT22;52992;52.084;5.412;2023-05-02T09:53:51;17.30;30.60
66190;DHT22;52992;52.084;5.412;2023-05-02T09:56:18;17.70;30.50
66190;DHT22;52992;52.084;5.412;2023-05-02T09:58:45;18.00;29.90
66190;DHT22;52992;52.084;5.412;2023-05-02T10:01:18;18.40;29.90
66190;DHT22;52992;52.084;5.412;2023-05-02T10:03:47;18.50;29.50
66190;DHT22;52992;52.084;5.412;2023-05-02T10:06:18;18.50;28.50
66190;DHT22;52992;52.084;5.412;2023-05-02T10:08:46;18.40;29.20
66190;DHT22;52992;52.084;5.412;2023-05-02T10:11:14;18.80;28.60
66190;DHT22;52992;52.084;5.412;2023-05-02T10:13:42;19.00;27.90
66190;DHT22;52992;52.084;5.412;2023-05-02T10:16:11;19.40;27.30
66190;DHT22;52992;52.084;5.412;2023-05-02T10:18:47;21.00;25.60
66190;DHT22;52992;52.084;5.412;2023-05-02T10:21:24;22.80;24.20
66190;DHT22;52992;52.084;5.412;2023-05-02T10:23:53;23.00;23.20
66190;DHT22;52992;52.084;5.412;2023-05-02T10:26:20;22.30;23.30
66190;DHT22;52992;52.084;5.412;2023-05-02T10:28:49;21.30;24.30
66190;DHT22;52992;52.084;5.412;2023-05-02T10:31:17;20.50;25.90
66190;DHT22;52992;52.084;5.412;2023-05-02T10:33:46;21.00;25.60
66190;DHT22;52992;52.084;5.412;2023-05-02T10:36:20;23.40;22.90
66190;DHT22;52992;52.084;5.412;2023-05-02T10:38:48;26.00;19.70
66190;DHT22;52992;52.084;5.412;2023-05-02T10:41:24;27.80;18.30
66190;DHT22;52992;52.084;5.412;2023-05-02T10:43:52;27.10;19.40
66190;DHT22;52992;52.084;5.412;2023-05-02T10:46:39;24.90;20.50
66190;DHT22;52992;52.084;5.412;2023-05-02T10:49:11;23.20;23.00
66190;DHT22;52992;52.084;5.412;2023-05-02T10:51:40;24.70;20.90
66190;DHT22;52992;52.084;5.412;2023-05-02T10:54:22;26.30;18.90
66190;DHT22;52992;52.084;5.412;2023-05-02T11:01:57;28.60;17.70
66190;DHT22;52992;52.084;5.412;2023-05-02T11:04:24;26.60;19.60
66190;DHT22;52992;52.084;5.412;2023-05-02T11:11:54;27.30;19.20
66190;DHT22;52992;52.084;5.412;2023-05-02T11:19:26;29.30;17.60
66190;DHT22;52992;52.084;5.412;2023-05-02T11:24:53;28.30;17.40
66190;DHT22;52992;52.084;5.412;2023-05-02T11:30:06;26.60;18.70
66190;DHT22;52992;52.084;5.412;2023-05-02T11:38:02;29.60;17.10
66190;DHT22;52992;52.084;5.412;2023-05-02T11:40:30;29.10;16.80
66190;DHT22;52992;52.084;5.412;2023-05-02T11:42:59;29.10;16.70
66190;DHT22;52992;52.084;5.412;2023-05-02T11:45:36;29.60;16.00
66190;DHT22;52992;52.084;5.412;2023-05-02T11:48:06;28.60;16.80
66190;DHT22;52992;52.084;5.412;2023-05-02T11:50:45;26.70;17.30
66190;DHT22;52992;52.084;5.412;2023-05-02T11:53:20;26.00;18.40
66190;DHT22;52992;52.084;5.412;2023-05-02T11:55:53;27.40;17.40
66190;DHT22;52992;52.084;5.412;2023-05-02T11:58:22;28.70;16.80
66190;DHT22;52992;52.084;5.412;2023-05-02T12:00:51;29.40;16.10
66190;DHT22;52992;52.084;5.412;2023-05-02T12:05:53;28.10;16.50
66190;DHT22;52992;52.084;5.412;2023-05-02T12:08:27;28.30;16.90
66190;DHT22;52992;52.084;5.412;2023-05-02T12:10:55;29.60;15.90
66190;DHT22;52992;52.084;5.412;2023-05-02T12:13:23;30.00;15.60
66190;DHT22;52992;52.084;5.412;2023-05-02T12:15:54;29.50;15.80
66190;DHT22;52992;52.084;5.412;2023-05-02T12:18:23;29.90;15.40
66190;DHT22;52992;52.084;5.412;2023-05-02T12:20:51;29.70;15.60
66190;DHT22;52992;52.084;5.412;2023-05-02T12:23:20;30.60;14.90
66190;DHT22;52992;52.084;5.412;2023-05-02T12:25:48;30.90;14.00
66190;DHT22;52992;52.084;5.412;2023-05-02T12:28:17;28.20;16.30
66190;DHT22;52992;52.084;5.412;2023-05-02T12:30:47;26.80;17.50
66190;DHT22;52992;52.084;5.412;2023-05-02T12:33:15;28.20;17.10
66190;DHT22;52992;52.084;5.412;2023-05-02T12:35:43;29.60;15.70
66190;DHT22;52992;52.084;5.412;2023-05-02T12:38:19;30.40;15.40
66190;DHT22;52992;52.084;5.412;2023-05-02T12:40:53;30.90;14.80
66190;DHT22;52992;52.084;5.412;2023-05-02T12:43:23;31.30;14.80
66190;DHT22;52992;52.084;5.412;2023-05-02T12:45:57;31.10;14.60
66190;DHT22;52992;52.084;5.412;2023-05-02T12:48:34;30.80;14.90
66190;DHT22;52992;52.084;5.412;2023-05-02T12:51:01;30.40;15.10
66190;DHT22;52992;52.084;5.412;2023-05-02T12:53:41;29.40;16.40
66190;DHT22;52992;52.084;5.412;2023-05-02T12:56:10;29.30;15.90
66190;DHT22;52992;52.084;5.412;2023-05-02T12:58:44;29.30;15.90
66190;DHT22;52992;52.084;5.412;2023-05-02T13:01:12;29.10;16.10
66190;DHT22;52992;52.084;5.412;2023-05-02T13:03:40;28.80;16.60
66190;DHT22;52992;52.084;5.412;2023-05-02T13:06:07;28.30;16.40
66190;DHT22;52992;52.084;5.412;2023-05-02T13:08:35;27.90;16.70
66190;DHT22;52992;52.084;5.412;2023-05-02T13:11:03;27.80;17.10
66190;DHT22;52992;52.084;5.412;2023-05-02T13:13:30;27.50;17.10
66190;DHT22;52992;52.084;5.412;2023-05-02T13:15:58;27.20;17.50
66190;DHT22;52992;52.084;5.412;2023-05-02T13:18:25;26.70;18.10
66190;DHT22;52992;52.084;5.412;2023-05-02T13:20:53;26.30;18.40
66190;DHT22;52992;52.084;5.412;2023-05-02T13:23:21;26.00;19.00
66190;DHT22;52992;52.084;5.412;2023-05-02T13:25:47;25.80;18.70
66190;DHT22;52992;52.084;5.412;2023-05-02T13:28:14;25.60;19.20
66190;DHT22;52992;52.084;5.412;2023-05-02T13:30:41;25.10;18.80
66190;DHT22;52992;52.084;5.412;2023-05-02T13:33:08;24.60;19.50
66190;DHT22;52992;52.084;5.412;2023-05-02T13:35:36;24.20;20.00
66190;DHT22;52992;52.084;5.412;2023-05-02T13:38:03;23.90;20.90
66190;DHT22;52992;52.084;5.412;2023-05-02T13:40:30;23.70;21.10
66190;DHT22;52992;52.084;5.412;2023-05-02T13:42:56;23.60;21.40
66190;DHT22;52992;52.084;5.412;2023-05-02T13:45:23;23.30;21.50
66190;DHT22;52992;52.084;5.412;2023-05-02T13:47:50;22.90;21.40
66190;DHT22;52992;52.084;5.412;2023-05-02T13:50:17;22.40;22.10
66190;DHT22;52992;52.084;5.412;2023-05-02T13:52:44;22.10;22.70
66190;DHT22;52992;52.084;5.412;2023-05-02T13:55:14;21.90;23.10
66190;DHT22;52992;52.084;5.412;2023-05-02T13:57:41;21.60;23.10
66190;DHT22;52992;52.084;5.412;2023-05-02T14:00:09;21.30;23.50
66190;DHT22;52992;52.084;5.412;2023-05-02T14:02:37;21.00;24.10
66190;DHT22;52992;52.084;5.412;2023-05-02T14:05:04;21.00;24.40
66190;DHT22;52992;52.084;5.412;2023-05-02T14:07:31;21.10;24.50
66190;DHT22;52992;52.084;5.412;2023-05-02T14:09:58;21.10;23.40
66190;DHT22;52992;52.084;5.412;2023-05-02T14:12:25;20.80;23.70
66190;DHT22;52992;52.084;5.412;2023-05-02T14:14:52;20.60;24.40
66190;DHT22;52992;52.084;5.412;2023-05-02T14:17:19;20.60;24.80
66190;DHT22;52992;52.084;5.412;2023-05-02T14:19:46;20.60;25.00
66190;DHT22;52992;52.084;5.412;2023-05-02T14:22:13;20.40;24.60
66190;DHT22;52992;52.084;5.412;2023-05-02T14:24:41;19.90;25.20
66190;DHT22;52992;52.084;5.412;2023-05-02T14:27:08;19.60;25.80
66190;DHT22;52992;52.084;5.412;2023-05-02T14:29:47;19.50;26.60
66190;DHT22;52992;52.084;5.412;2023-05-02T14:32:14;19.40;26.70
66190;DHT22;52992;52.084;5.412;2023-05-02T14:34:41;19.30;26.40
66190;DHT22;52992;52.084;5.412;2023-05-02T14:37:08;19.20;26.80
66190;DHT22;52992;52.084;5.412;2023-05-02T14:39:35;19.10;27.10
66190;DHT22;52992;52.084;5.412;2023-05-02T14:42:02;19.10;27.10
66190;DHT22;52992;52.084;5.412;2023-05-02T14:44:30;19.00;27.00
66190;DHT22;52992;52.084;5.412;2023-05-02T14:46:57;18.80;26.60
66190;DHT22;52992;52.084;5.412;2023-05-02T14:49:25;18.50;26.30
66190;DHT22;52992;52.084;5.412;2023-05-02T14:51:52;18.30;26.90
66190;DHT22;52992;52.084;5.412;2023-05-02T14:54:26;18.30;26.90
66190;DHT22;52992;52.084;5.412;2023-05-02T14:56:54;18.30;27.20
66190;DHT22;52992;52.084;5.412;2023-05-02T14:59:21;18.30;27.50
66190;DHT22;52992;52.084;5.412;2023-05-02T15:01:50;18.30;27.90
66190;DHT22;52992;52.084;5.412;2023-05-02T15:04:17;18.30;28.20
66190;DHT22;52992;52.084;5.412;2023-05-02T15:06:45;18.20;27.70
66190;DHT22;52992;52.084;5.412;2023-05-02T15:09:14;18.00;27.60
66190;DHT22;52992;52.084;5.412;2023-05-02T15:11:42;18.00;28.00
66190;DHT22;52992;52.084;5.412;2023-05-02T15:14:09;18.00;28.50
66190;DHT22;52992;52.084;5.412;2023-05-02T15:16:36;18.10;28.90
66190;DHT22;52992;52.084;5.412;2023-05-02T15:19:04;18.20;28.60
66190;DHT22;52992;52.084;5.412;2023-05-02T15:21:31;18.20;28.20
66190;DHT22;52992;52.084;5.412;2023-05-02T15:23:58;18.20;28.40
66190;DHT22;52992;52.084;5.412;2023-05-02T15:26:25;18.10;28.40
66190;DHT22;52992;52.084;5.412;2023-05-02T15:28:52;18.10;28.20
66190;DHT22;52992;52.084;5.412;2023-05-02T15:31:20;18.00;27.90
66190;DHT22;52992;52.084;5.412;2023-05-02T15:33:47;18.00;28.10
66190;DHT22;52992;52.084;5.412;2023-05-02T15:36:14;17.90;27.80
66190;DHT22;52992;52.084;5.412;2023-05-02T15:38:41;17.70;27.90
66190;DHT22;52992;52.084;5.412;2023-05-02T15:41:09;17.60;28.10
66190;DHT22;52992;52.084;5.412;2023-05-02T15:43:37;17.60;28.10
66190;DHT22;52992;52.084;5.412;2023-05-02T15:46:04;17.60;28.60
66190;DHT22;52992;52.084;5.412;2023-05-02T15:48:31;17.70;28.90
66190;DHT22;52992;52.084;5.412;2023-05-02T15:50:59;17.70;28.10
66190;DHT22;52992;52.084;5.412;2023-05-02T15:53:26;17.60;28.20
66190;DHT22;52992;52.084;5.412;2023-05-02T15:55:52;17.60;28.00
66190;DHT22;52992;52.084;5.412;2023-05-02T15:58:19;17.60;28.00
66190;DHT22;52992;52.084;5.412;2023-05-02T16:00:46;17.50;28.40
66190;DHT22;52992;52.084;5.412;2023-05-02T16:03:13;17.50;28.60
66190;DHT22;52992;52.084;5.412;2023-05-02T16:05:41;17.50;28.80
66190;DHT22;52992;52.084;5.412;2023-05-02T16:08:08;17.50;29.00
66190;DHT22;52992;52.084;5.412;2023-05-02T16:10:35;17.50;28.70
66190;DHT22;52992;52.084;5.412;2023-05-02T16:13:04;17.50;28.80
66190;DHT22;52992;52.084;5.412;2023-05-02T16:15:31;17.50;28.80
66190;DHT22;52992;52.084;5.412;2023-05-02T16:17:58;17.40;28.80
66190;DHT22;52992;52.084;5.412;2023-05-02T16:20:25;17.50;29.40
66190;DHT22;52992;52.084;5.412;2023-05-02T16:22:53;17.60;29.30
66190;DHT22;52992;52.084;5.412;2023-05-02T16:25:20;17.70;28.90